Time;durP1;ratioP1;P1;durP2;ratioP2;P2;SDS_P1;SDS_P2;PMS_P1;PMS_P2;Temp;Humidity;BMP_temperature;BMP_pressure;BME280_temperature;BME280_humidity;BME280_pressure;Samples;Min_cycle;Max_cycle;Signal;HPM_P1;HPM_P2
2024/02/11 00:01:44;;;;;;;1.65;1.65;;;;;;;10.34;100.00;98560.41;10409176;28;20034;-71
2024/02/11 00:06:46;;;;;;;1.27;1.27;;;;;;;10.31;100.00;98554.69;10375544;28;20063;-73
2024/02/11 00:11:47;;;;;;;4.65;4.35;;;;;;;10.25;100.00;98551.88;10375632;28;20038;-71
2024/02/11 00:16:47;;;;;;;1.30;1.30;;;;;;;10.29;100.00;98544.13;10375796;28;20085;-71
2024/02/11 00:21:47;;;;;;;0.80;0.80;;;;;;;10.26;100.00;98536.50;10410211;28;20034;-70
2024/02/11 00:26:48;;;;;;;0.68;0.68;;;;;;;10.30;100.00;98542.22;10374191;28;20045;-71
2024/02/11 00:31:48;;;;;;;2.28;2.17;;;;;;;10.29;100.00;98544.13;10373564;28;20481;-71
2024/02/11 00:36:49;;;;;;;1.85;1.85;;;;;;;10.24;100.00;98549.41;10374386;28;20038;-71
2024/02/11 00:41:50;;;;;;;4.00;2.50;;;;;;;10.27;100.00;98548.13;10409890;28;20038;-70
2024/02/11 00:46:51;;;;;;;2.78;2.30;;;;;;;10.30;100.00;98545.75;10374771;28;20038;-70
2024/02/11 00:51:54;;;;;;;1.60;1.55;;;;;;;10.28;100.00;98545.19;10374199;28;20038;-68
2024/02/11 00:56:55;;;;;;;0.60;0.60;;;;;;;10.25;100.00;98549.19;10373731;28;20050;-71
2024/02/11 01:01:56;;;;;;;2.40;2.15;;;;;;;10.21;100.00;98556.19;10373678;28;20117;-71
2024/02/11 01:06:57;;;;;;;4.40;3.17;;;;;;;10.18;100.00;98547.75;10374238;28;20117;-71
2024/02/11 01:11:58;;;;;;;1.02;1.02;;;;;;;10.20;100.00;98551.00;10404798;28;20030;-71
2024/02/11 01:16:58;;;;;;;1.13;1.13;;;;;;;10.20;100.00;98559.13;10373867;28;20530;-71
2024/02/11 01:21:59;;;;;;;0.50;0.50;;;;;;;10.13;100.00;98553.09;10357037;28;20072;-70
2024/02/11 01:26:59;;;;;;;2.80;2.70;;;;;;;10.10;100.00;98561.72;10373454;28;20029;-71
2024/02/11 01:32:00;;;;;;;4.10;3.03;;;;;;;10.13;100.00;98572.03;10356658;28;20448;-68
2024/02/11 01:37:00;;;;;;;0.98;0.98;;;;;;;10.07;100.00;98559.50;10377616;28;20458;-68
2024/02/11 01:42:02;;;;;;;1.13;1.13;;;;;;;10.09;100.00;98571.72;10379341;28;20069;-68
2024/02/11 01:47:03;;;;;;;1.63;1.63;;;;;;;10.12;100.00;98575.81;10380059;28;20116;-68
2024/02/11 01:52:06;;;;;;;0.88;0.88;;;;;;;10.12;100.00;98568.50;10377018;28;20048;-69
2024/02/11 01:57:06;;;;;;;3.20;2.58;;;;;;;10.09;100.00;98558.19;10410843;28;20121;-68
2024/02/11 02:02:09;;;;;;;1.00;1.00;;;;;;;10.17;100.00;98563.13;10412167;28;20148;-69
2024/02/11 02:07:10;;;;;;;1.58;1.55;;;;;;;10.15;100.00;98569.91;10378620;28;20022;-69
2024/02/11 02:12:10;;;;;;;2.20;2.15;;;;;;;10.19;100.00;98568.31;10378796;28;20109;-71
2024/02/11 02:17:11;;;;;;;5.95;2.75;;;;;;;10.21;100.00;98564.28;10378984;28;20053;-69
2024/02/11 02:22:11;;;;;;;1.15;1.15;;;;;;;10.23;100.00;98562.13;10409236;28;20057;-68
2024/02/11 02:27:13;;;;;;;3.10;2.90;;;;;;;10.28;100.00;98552.50;10376980;28;20050;-72
2024/02/11 02:32:13;;;;;;;2.08;2.00;;;;;;;10.25;100.00;98545.66;10377239;28;20042;-68
2024/02/11 02:37:14;;;;;;;9.25;1.92;;;;;;;10.29;100.00;98548.72;10377942;28;20088;-68
2024/02/11 02:42:14;;;;;;;2.55;2.45;;;;;;;10.27;100.00;98540.03;10379563;28;20065;-75
2024/02/11 02:47:15;;;;;;;1.23;1.23;;;;;;;10.27;100.00;98546.25;10377545;28;20041;-68
2024/02/11 02:52:15;;;;;;;1.55;1.55;;;;;;;10.27;100.00;98540.03;10377438;28;20042;-69
2024/02/11 02:57:15;;;;;;;2.25;2.05;;;;;;;10.27;100.00;98543.53;10382847;28;20034;-72
2024/02/11 03:02:16;;;;;;;1.83;1.83;;;;;;;10.27;100.00;98543.53;10382304;28;20117;-70
2024/02/11 03:07:16;;;;;;;2.22;2.13;;;;;;;10.28;100.00;98547.91;10380694;28;20093;-70
2024/02/11 03:12:17;;;;;;;2.75;2.58;;;;;;;10.25;100.00;98541.06;10397849;28;20096;-71
2024/02/11 03:17:17;;;;;;;2.25;2.15;;;;;;;10.25;100.00;98543.78;10379939;28;20081;-70
2024/02/11 03:22:17;;;;;;;2.38;2.17;;;;;;;10.24;100.00;98541.31;10378809;28;20069;-74
2024/02/11 03:27:18;;;;;;;2.13;2.00;;;;;;;10.25;100.00;98543.78;10376377;28;20041;-73
2024/02/11 03:32:18;;;;;;;1.00;1.00;;;;;;;10.26;100.00;98536.50;10376196;28;20096;-72
2024/02/11 03:37:19;;;;;;;4.05;3.55;;;;;;;10.26;100.00;98547.31;10374688;28;20096;-72
2024/02/11 03:42:19;;;;;;;4.90;3.55;;;;;;;10.28;100.00;98545.19;10375539;28;20030;-72
2024/02/11 03:47:22;;;;;;;2.60;2.50;;;;;;;10.29;100.00;98544.13;10375074;28;20037;-73
2024/02/11 03:52:23;;;;;;;4.88;2.40;;;;;;;10.30;100.00;98551.16;10376331;28;20038;-71
2024/02/11 03:57:23;;;;;;;1.73;1.60;;;;;;;10.30;100.00;98555.75;10381870;28;20038;-71
2024/02/11 04:02:23;;;;;;;2.50;2.40;;;;;;;10.24;100.00;98550.25;10420316;28;20045;-73
2024/02/11 04:07:25;;;;;;;1.88;1.33;;;;;;;10.24;100.00;98555.69;10375689;28;20046;-73
2024/02/11 04:12:26;;;;;;;1.52;1.52;;;;;;;10.23;100.00;98551.31;10375822;28;20033;-74
2024/02/11 04:17:27;;;;;;;3.20;3.08;;;;;;;10.25;100.00;98559.19;10374287;28;20064;-75
2024/02/11 04:22:29;;;;;;;4.38;3.97;;;;;;;10.23;100.00;98556.72;10409237;28;20038;-73
2024/02/11 04:27:30;;;;;;;0.50;0.50;;;;;;;10.13;100.00;98563.91;10377392;28;20034;-75
2024/02/11 04:32:30;;;;;;;0.85;0.85;;;;;;;9.75;100.00;98568.28;10377292;28;20034;-75
2024/02/11 04:37:30;;;;;;;0.40;0.40;;;;;;;9.49;100.00;98567.91;10379636;28;20095;-73
2024/02/11 04:42:35;;;;;;;0.47;0.47;;;;;;;9.34;100.00;98570.38;10378218;28;20034;-74
2024/02/11 04:47:35;;;;;;;0.57;0.57;;;;;;;9.29;100.00;98579.22;10376984;28;20113;-73
2024/02/11 04:52:38;;;;;;;1.20;1.20;;;;;;;9.27;100.00;98581.34;10377035;28;20069;-74
2024/02/11 04:57:39;;;;;;;2.10;2.00;;;;;;;9.16;100.00;98590.38;10376565;28;20030;-73
2024/02/11 05:02:44;;;;;;;0.85;0.85;;;;;;;9.11;100.00;98590.28;10376126;28;20038;-73
2024/02/11 05:07:46;;;;;;;0.35;0.35;;;;;;;9.07;100.00;98594.53;10376549;28;20102;-74
2024/02/11 05:12:49;;;;;;;0.30;0.30;;;;;;;8.92;100.00;98603.16;10385297;28;20034;-74
2024/02/11 05:17:50;;;;;;;0.60;0.60;;;;;;;8.85;100.00;98611.41;10383559;28;20084;-74
2024/02/11 05:22:50;;;;;;;0.45;0.45;;;;;;;8.73;100.00;98617.94;10398160;28;20390;-73
2024/02/11 05:27:59;;;;;;;1.05;1.02;;;;;;;8.71;100.00;98628.97;10383636;28;20387;-75
2024/02/11 05:33:02;;;;;;;0.50;0.50;;;;;;;8.61;100.00;98634.16;10388497;28;20037;-73
2024/02/11 05:38:06;;;;;;;1.35;1.35;;;;;;;8.31;100.00;98629.78;10370806;28;20038;-74
2024/02/11 05:43:06;;;;;;;0.40;0.40;;;;;;;8.29;100.00;98645.34;10384976;28;20113;-74
2024/02/11 05:48:07;;;;;;;0.55;0.55;;;;;;;8.24;100.00;98650.66;10366129;28;20116;-75
2024/02/11 05:53:08;;;;;;;0.30;0.30;;;;;;;8.21;100.00;98644.94;10365337;28;20068;-73
2024/02/11 05:58:08;;;;;;;11.70;5.32;;;;;;;8.16;100.00;98642.94;10398006;28;20072;-74
2024/02/11 06:03:09;;;;;;;0.52;0.52;;;;;;;8.16;100.00;98651.03;10364719;28;20066;-73
2024/02/11 06:08:09;;;;;;;0.40;0.40;;;;;;;8.11;100.00;98659.81;10364463;28;20053;-74
2024/02/11 06:13:10;;;;;;;0.60;0.60;;;;;;;8.14;100.00;98663.94;10381386;28;20037;-74
2024/02/11 06:18:11;;;;;;;0.68;0.68;;;;;;;8.07;100.00;98661.38;10381793;28;20061;-75
2024/02/11 06:23:12;;;;;;;0.70;0.70;;;;;;;8.00;100.00;98679.50;10364811;28;20037;-74
2024/02/11 06:28:13;;;;;;;9.27;3.45;;;;;;;7.96;100.00;98675.66;10381233;28;20056;-74
2024/02/11 06:33:14;;;;;;;0.40;0.40;;;;;;;7.95;100.00;98684.00;10414144;28;20446;-75
2024/02/11 06:38:14;;;;;;;1.40;1.08;;;;;;;7.89;100.00;98675.78;10379595;28;20092;-73
2024/02/11 06:43:17;;;;;;;0.70;0.70;;;;;;;7.89;100.00;98683.03;10378862;28;20030;-74
2024/02/11 06:48:18;;;;;;;0.40;0.40;;;;;;;7.98;100.00;98695.13;10379936;28;20470;-75
2024/02/11 06:53:18;;;;;;;0.45;0.45;;;;;;;8.01;100.00;98710.81;10380587;28;20069;-74
2024/02/11 06:58:18;;;;;;;0.60;0.60;;;;;;;8.01;100.00;98718.91;10379669;28;20385;-74
2024/02/11 07:03:19;;;;;;;0.52;0.52;;;;;;;7.91;100.00;98732.97;10394062;28;20061;-76
2024/02/11 07:08:21;;;;;;;0.70;0.70;;;;;;;7.93;100.00;98751.59;10376496;28;20045;-74
2024/02/11 07:13:21;;;;;;;0.70;0.70;;;;;;;7.96;100.00;98756.50;10375595;28;20033;-75
2024/02/11 07:18:22;;;;;;;0.60;0.60;;;;;;;7.93;100.00;98762.34;10391756;28;20058;-74
2024/02/11 07:23:23;;;;;;;0.80;0.80;;;;;;;7.90;100.00;98765.53;10375468;28;20040;-73
2024/02/11 07:28:23;;;;;;;0.55;0.55;;;;;;;7.92;100.00;98771.50;10374986;28;20033;-76
2024/02/11 07:33:24;;;;;;;4.85;2.15;;;;;;;7.87;100.00;98774.06;10376971;28;20038;-75
2024/02/11 07:38:26;;;;;;;3.33;2.83;;;;;;;7.96;100.00;98782.63;10378104;28;20104;-75
2024/02/11 07:43:26;;;;;;;1.13;1.13;;;;;;;8.02;100.00;98777.13;10375264;28;20041;-75
2024/02/11 07:48:27;;;;;;;8.50;3.90;;;;;;;8.08;100.00;98783.47;10374691;28;20041;-74
2024/02/11 07:53:28;;;;;;;2.80;2.63;;;;;;;8.06;100.00;98780.19;10375377;28;20362;-74
2024/02/11 07:58:28;;;;;;;3.72;1.80;;;;;;;8.09;100.00;98796.72;10393252;28;20038;-76
2024/02/11 08:03:29;;;;;;;3.17;1.70;;;;;;;8.15;100.00;98789.56;10395849;28;20104;-74
2024/02/11 08:08:29;;;;;;;8.45;5.53;;;;;;;8.19;100.00;98795.31;10376985;28;20479;-74
2024/02/11 08:13:32;;;;;;;0.60;0.60;;;;;;;8.19;100.00;98801.53;10390153;28;20030;-74
2024/02/11 08:18:33;;;;;;;0.50;0.50;;;;;;;8.28;100.00;98810.09;10372714;28;20053;-75
2024/02/11 08:23:33;;;;;;;2.40;1.17;;;;;;;8.35;100.00;98816.19;10374252;28;20042;-76
2024/02/11 08:28:34;;;;;;;0.40;0.40;;;;;;;8.43;100.00;98817.75;10374265;28;20409;-75
2024/02/11 08:33:34;;;;;;;0.63;0.63;;;;;;;8.50;100.00;98829.25;10356754;28;20088;-75
2024/02/11 08:38:35;;;;;;;0.50;0.50;;;;;;;8.55;100.00;98837.44;10373560;28;20038;-76
2024/02/11 08:43:35;;;;;;;0.60;0.60;;;;;;;8.54;100.00;98847.41;10373243;28;20061;-74
2024/02/11 08:48:35;;;;;;;3.05;2.85;;;;;;;8.78;100.00;98852.81;10381567;28;20038;-75
2024/02/11 08:53:36;;;;;;;0.50;0.50;;;;;;;8.95;100.00;98855.59;10385380;28;20061;-73
2024/02/11 08:58:37;;;;;;;2.55;2.45;;;;;;;8.95;100.00;98864.53;10402582;28;20115;-73
2024/02/11 09:03:37;;;;;;;0.70;0.70;;;;;;;8.94;100.00;98886.38;10382514;28;20034;-75
2024/02/11 09:08:39;;;;;;;0.98;0.98;;;;;;;8.96;100.00;98871.56;10380295;28;20038;-73
2024/02/11 09:13:40;;;;;;;0.60;0.60;;;;;;;8.99;100.00;98881.06;10381719;28;20049;-74
2024/02/11 09:18:40;;;;;;;3.03;1.90;;;;;;;8.96;100.00;98889.63;10380720;28;20145;-73
2024/02/11 09:23:40;;;;;;;3.10;2.97;;;;;;;8.96;100.00;98887.75;10380829;28;20097;-73
2024/02/11 09:28:44;;;;;;;1.23;1.23;;;;;;;8.90;100.00;98899.50;10379776;28;20057;-73
2024/02/11 09:33:44;;;;;;;0.95;0.95;;;;;;;9.12;100.00;98891.59;10379933;28;20129;-73
2024/02/11 09:38:47;;;;;;;0.70;0.70;;;;;;;9.32;100.00;98899.34;10410880;28;20141;-73
2024/02/11 09:43:48;;;;;;;0.40;0.40;;;;;;;9.18;100.00;98906.84;10380048;28;20042;-72
2024/02/11 09:48:52;;;;;;;0.57;0.57;;;;;;;9.30;100.00;98913.06;10377028;28;20089;-72
2024/02/11 09:53:54;;;;;;;0.30;0.30;;;;;;;9.73;100.00;98919.06;10379063;28;20056;-72
2024/02/11 09:58:56;;;;;;;4.63;3.67;;;;;;;10.04;100.00;98917.75;10378106;28;20040;-72
2024/02/11 10:03:57;;;;;;;1.52;1.52;;;;;;;9.73;100.00;98930.72;10412873;28;20038;-73
2024/02/11 10:08:57;;;;;;;1.05;1.05;;;;;;;9.62;100.00;98941.53;10378917;28;20478;-72
2024/02/11 10:13:59;;;;;;;1.65;1.15;;;;;;;9.66;100.00;98946.22;10361106;28;20045;-75
2024/02/11 10:19:00;;;;;;;1.50;1.45;;;;;;;9.63;100.00;98946.69;10381726;28;20500;-74
2024/02/11 10:24:02;;;;;;;0.50;0.50;;;;;;;9.66;100.00;98948.09;10419227;28;20497;-73
2024/02/11 10:29:05;;;;;;;0.73;0.73;;;;;;;9.91;100.00;98951.31;10294898;28;20069;-74
2024/02/11 10:34:08;;;;;;;16.55;14.13;;;;;;;10.02;100.00;98960.47;10377322;28;20045;-75
2024/02/11 10:39:08;;;;;;;30.25;16.42;;;;;;;10.12;100.00;98973.34;10375745;28;20046;-72
2024/02/11 10:44:09;;;;;;;27.50;13.07;;;;;;;10.16;100.00;98967.19;10409590;28;20103;-74
2024/02/11 10:49:11;;;;;;;27.02;14.07;;;;;;;10.06;100.00;98977.84;10391903;28;20073;-77
2024/02/11 10:54:14;;;;;;;23.27;13.70;;;;;;;10.21;100.00;98971.88;10376149;28;20385;-72
2024/02/11 10:59:27;;;;;;;25.83;14.57;;;;;;;10.22;100.00;98982.47;10376660;28;20038;-74
2024/02/11 11:04:27;;;;;;;23.38;13.57;;;;;;;9.96;100.00;98978.47;10375249;28;20022;-73
2024/02/11 11:09:29;;;;;;;21.70;15.23;;;;;;;10.02;100.00;98984.78;10373727;28;20033;-72
2024/02/11 11:14:32;;;;;;;38.03;16.02;;;;;;;9.90;100.00;98973.19;10373609;28;20057;-76
2024/02/11 11:19:33;;;;;;;27.55;16.05;;;;;;;9.89;100.00;98987.75;10376206;28;20057;-71
2024/02/11 11:24:38;;;;;;;32.08;17.88;;;;;;;9.97;100.00;98980.09;10374078;28;20033;-73
2024/02/11 11:29:38;;;;;;;40.53;18.23;;;;;;;10.06;100.00;98982.44;10375630;28;20316;-74
2024/02/11 11:34:38;;;;;;;27.17;18.55;;;;;;;10.02;100.00;98992.91;10389307;28;20038;-75
2024/02/11 11:39:40;;;;;;;32.25;18.80;;;;;;;9.90;100.00;98992.94;10390344;28;20030;-74
2024/02/11 11:44:41;;;;;;;24.48;19.52;;;;;;;9.85;100.00;98990.13;10374139;28;20032;-73
2024/02/11 11:49:41;;;;;;;35.45;20.88;;;;;;;9.90;100.00;98984.81;10374426;28;20065;-72
2024/02/11 11:54:42;;;;;;;41.10;21.85;;;;;;;9.96;100.00;98988.47;10307639;28;20049;-72
2024/02/11 11:59:42;;;;;;;43.08;22.02;;;;;;;10.02;100.00;98990.22;10371003;28;20046;-75
2024/02/11 12:04:43;;;;;;;39.05;24.38;;;;;;;10.08;100.00;98993.81;10374156;28;20517;-72
2024/02/11 12:09:44;;;;;;;45.17;25.80;;;;;;;10.06;100.00;98987.84;10374543;28;20354;-74
2024/02/11 12:14:45;;;;;;;48.25;28.23;;;;;;;9.98;100.00;98995.25;10388536;28;20080;-72
2024/02/11 12:19:48;;;;;;;45.33;25.02;;;;;;;10.01;100.00;98996.66;10373451;28;20054;-72
2024/02/11 12:24:48;;;;;;;47.53;28.35;;;;;;;10.15;100.00;98991.81;10375076;28;20110;-74
2024/02/11 12:29:58;;;;;;;45.20;25.15;;;;;;;10.29;100.00;99000.47;10356529;28;20061;-73
2024/02/11 12:34:59;;;;;;;44.72;26.02;;;;;;;10.31;100.00;98992.94;10341260;28;20046;-76
2024/02/11 12:40:00;;;;;;;37.65;23.83;;;;;;;10.25;100.00;99000.91;10358085;28;20141;-78
2024/02/11 12:45:00;;;;;;;40.60;21.85;;;;;;;10.33;100.00;98991.63;10375438;28;20057;-73
2024/02/11 12:50:01;;;;;;;35.90;23.58;;;;;;;10.43;100.00;99002.66;10372915;28;20034;-75
2024/02/11 12:55:02;;;;;;;41.40;25.02;;;;;;;10.34;100.00;98998.69;10376287;28;20034;-72
2024/02/11 13:00:04;;;;;;;38.05;19.77;;;;;;;10.29;100.00;99011.28;10372689;28;20087;-76
2024/02/11 13:05:05;;;;;;;32.83;20.60;;;;;;;10.30;100.00;99005.63;10372130;28;20129;-73
2024/02/11 13:10:06;;;;;;;29.05;16.63;;;;;;;10.30;100.00;99013.75;10355360;28;20456;-76
2024/02/11 13:15:13;;;;;;;34.58;16.35;;;;;;;10.35;100.00;99018.44;10371880;28;20472;-74
2024/02/11 13:20:13;;;;;;;16.30;13.05;;;;;;;10.35;100.00;99021.16;10371681;28;20054;-74
2024/02/11 13:25:15;;;;;;;24.80;13.45;;;;;;;10.33;100.00;99032.19;10404872;28;20390;-75
2024/02/11 13:30:15;;;;;;;21.65;12.70;;;;;;;10.34;100.00;99031.16;10372016;28;20061;-74
2024/02/11 13:35:16;;;;;;;28.42;11.80;;;;;;;10.47;100.00;99043.56;10379888;28;20113;-73
2024/02/11 13:40:17;;;;;;;19.50;11.48;;;;;;;10.63;100.00;99047.38;10379490;28;20080;-73
2024/02/11 13:45:17;;;;;;;14.80;8.55;;;;;;;10.50;100.00;99047.66;10378014;28;20026;-71
2024/02/11 13:50:18;;;;;;;12.38;9.88;;;;;;;10.41;100.00;99048.06;10381141;28;20117;-76
2024/02/11 13:55:20;;;;;;;14.55;9.77;;;;;;;10.32;100.00;99056.81;10389473;28;20034;-76
2024/02/11 14:00:22;;;;;;;13.23;10.18;;;;;;;10.36;100.00;99047.94;10379437;28;20036;-77
2024/02/11 14:05:24;;;;;;;15.57;9.50;;;;;;;10.47;100.00;99048.97;10410674;28;20041;-75
2024/02/11 14:10:24;;;;;;;17.65;10.27;;;;;;;10.58;100.00;99066.22;10378989;28;20038;-76
2024/02/11 14:15:26;;;;;;;16.27;9.45;;;;;;;10.59;100.00;99070.56;10393757;28;20100;-76
2024/02/11 14:20:28;;;;;;;22.48;9.52;;;;;;;10.53;100.00;99071.53;10393115;28;20054;-74
2024/02/11 14:25:29;;;;;;;11.23;9.50;;;;;;;10.57;100.00;99070.00;10377590;28;20046;-72
2024/02/11 14:30:29;;;;;;;16.20;9.88;;;;;;;10.47;100.00;99082.28;10376808;28;20073;-77
2024/02/11 14:35:30;;;;;;;18.17;10.77;;;;;;;10.35;100.00;99081.50;10359641;28;20034;-74
2024/02/11 14:40:31;;;;;;;15.90;9.98;;;;;;;10.24;100.00;99093.13;10377927;28;20041;-74
2024/02/11 14:45:31;;;;;;;12.32;8.95;;;;;;;9.99;100.00;99101.56;10359020;28;20083;-76
2024/02/11 14:50:31;;;;;;;13.93;8.20;;;;;;;9.82;100.00;99100.63;10393575;28;20072;-74
2024/02/11 14:55:33;;;;;;;0.60;0.60;;;;;;;9.69;100.00;99107.09;10377520;28;20488;-74
2024/02/11 15:00:33;;;;;;;2.70;2.50;;;;;;;9.67;100.00;99114.63;10391368;28;20053;-74
2024/02/11 15:05:33;;;;;;;0.50;0.50;;;;;;;9.75;100.00;99103.44;10374430;28;20038;-75
2024/02/11 15:10:34;;;;;;;1.75;1.65;;;;;;;9.80;100.00;99113.56;10376142;28;20038;-76
2024/02/11 15:15:36;;;;;;;0.45;0.45;;;;;;;9.75;100.00;99128.59;10375934;28;20041;-74
2024/02/11 15:20:38;;;;;;;1.27;1.27;;;;;;;9.77;100.00;99136.47;10375812;28;20046;-74
2024/02/11 15:25:38;;;;;;;0.95;0.95;;;;;;;9.71;100.00;99129.31;10375026;28;20062;-74
2024/02/11 15:30:39;;;;;;;2.08;1.98;;;;;;;9.76;100.00;99151.03;10303506;28;20059;-71
2024/02/11 15:35:40;;;;;;;2.10;2.00;;;;;;;9.72;100.00;99149.88;10333319;28;20389;-71
2024/02/11 15:40:41;;;;;;;2.25;2.15;;;;;;;9.72;100.00;99156.09;10333167;28;20518;-74
2024/02/11 15:45:42;;;;;;;0.40;0.40;;;;;;;9.68;100.00;99160.31;10334140;28;20117;-71
2024/02/11 15:50:42;;;;;;;7.55;4.68;;;;;;;9.72;100.00;99171.50;10334455;28;20045;-73
2024/02/11 15:55:44;;;;;;;1.85;1.80;;;;;;;9.72;100.00;99166.09;10335288;28;20514;-71
2024/02/11 16:00:44;;;;;;;25.52;4.57;;;;;;;9.69;100.00;99172.78;10334836;28;20073;-73
2024/02/11 16:05:45;;;;;;;1.25;1.25;;;;;;;9.68;100.00;99175.72;10332225;28;20034;-72
2024/02/11 16:10:49;;;;;;;0.70;0.70;;;;;;;9.64;100.00;99183.47;10334325;28;20034;-71
2024/02/11 16:15:49;;;;;;;5.60;1.45;;;;;;;9.55;100.00;99183.00;10333978;28;20405;-73
2024/02/11 16:20:50;;;;;;;0.50;0.50;;;;;;;9.50;100.00;99185.56;10333469;28;20051;-75
2024/02/11 16:25:50;;;;;;;0.43;0.43;;;;;;;9.48;100.00;99192.28;10332633;28;20078;-72
2024/02/11 16:30:50;;;;;;;0.88;0.88;;;;;;;9.45;100.00;99187.34;10332945;28;20462;-74
2024/02/11 16:35:51;;;;;;;0.75;0.75;;;;;;;9.41;100.00;99207.75;10331967;28;20041;-71
2024/02/11 16:40:54;;;;;;;0.82;0.82;;;;;;;9.34;100.00;99209.72;10332353;28;20497;-73
2024/02/11 16:45:55;;;;;;;1.15;1.15;;;;;;;9.30;100.00;99214.78;10331679;28;20034;-73
2024/02/11 16:50:55;;;;;;;0.73;0.73;;;;;;;9.27;100.00;99226.84;10331696;28;20038;-74
2024/02/11 16:55:56;;;;;;;0.50;0.50;;;;;;;9.18;100.00;99225.53;10331816;28;20077;-74
2024/02/11 17:01:01;;;;;;;0.77;0.77;;;;;;;9.06;100.00;99230.91;10332292;28;20061;-73
2024/02/11 17:06:03;;;;;;;0.93;0.93;;;;;;;8.82;100.00;99238.06;10336889;28;20100;-73
2024/02/11 17:11:03;;;;;;;0.50;0.50;;;;;;;8.65;100.00;99246.97;10341531;28;20035;-71
2024/02/11 17:16:06;;;;;;;2.45;2.35;;;;;;;8.44;100.00;99251.78;10339359;28;20042;-73
2024/02/11 17:21:10;;;;;;;3.15;1.80;;;;;;;8.36;100.00;99254.75;10341326;28;20050;-72
2024/02/11 17:26:11;;;;;;;1.27;1.27;;;;;;;8.40;100.00;99269.47;10341072;28;20097;-74
2024/02/11 17:31:12;;;;;;;0.65;0.65;;;;;;;8.43;100.00;99282.50;10359442;28;20080;-74
2024/02/11 17:36:14;;;;;;;8.40;3.67;;;;;;;8.54;100.00;99283.63;10342962;28;20050;-73
2024/02/11 17:41:16;;;;;;;0.80;0.80;;;;;;;8.70;100.00;99283.03;10358330;28;20057;-72
2024/02/11 17:46:17;;;;;;;0.57;0.57;;;;;;;8.73;100.00;99298.78;10339997;28;20041;-72
2024/02/11 17:51:18;;;;;;;0.55;0.55;;;;;;;8.70;100.00;99311.91;10338803;28;20069;-71
2024/02/11 17:56:18;;;;;;;2.30;2.10;;;;;;;8.76;100.00;99305.59;10338750;28;20069;-71
2024/02/11 18:01:22;;;;;;;1.25;1.25;;;;;;;8.76;100.00;99308.31;10355042;28;20042;-73
2024/02/11 18:06:22;;;;;;;1.10;1.10;;;;;;;8.82;100.00;99320.91;10339193;28;20424;-74
2024/02/11 18:11:23;;;;;;;0.90;0.90;;;;;;;8.88;100.00;99330.00;10320817;28;20074;-73
2024/02/11 18:16:23;;;;;;;1.13;1.13;;;;;;;8.89;100.00;99331.63;10352589;28;20097;-74
2024/02/11 18:21:25;;;;;;;0.70;0.70;;;;;;;8.92;100.00;99339.28;10337774;28;20062;-73
2024/02/11 18:26:27;;;;;;;0.95;0.95;;;;;;;8.96;100.00;99346.69;10352690;28;20121;-73
2024/02/11 18:31:27;;;;;;;0.80;0.80;;;;;;;8.96;100.00;99352.09;10337728;28;20038;-71
2024/02/11 18:36:28;;;;;;;0.40;0.40;;;;;;;8.92;100.00;99350.06;10337181;28;20034;-72
2024/02/11 18:41:29;;;;;;;1.75;1.10;;;;;;;8.87;100.00;99358.00;10336422;28;20038;-71
2024/02/11 18:46:30;;;;;;;0.73;0.73;;;;;;;8.88;100.00;99374.00;10338199;28;20435;-72
2024/02/11 18:51:35;;;;;;;0.75;0.75;;;;;;;8.93;100.00;99376.00;10337716;28;20038;-72
2024/02/11 18:56:36;;;;;;;0.52;0.52;;;;;;;8.95;100.00;99395.53;10336837;28;20081;-72
2024/02/11 19:01:36;;;;;;;1.33;1.33;;;;;;;8.95;100.00;99395.53;10336373;28;20109;-74
2024/02/11 19:06:37;;;;;;;0.90;0.90;;;;;;;8.94;100.00;99397.41;10334520;28;20093;-73
2024/02/11 19:11:37;;;;;;;0.60;0.60;;;;;;;8.92;100.00;99393.28;10336113;28;20081;-72
2024/02/11 19:16:38;;;;;;;0.30;0.30;;;;;;;8.91;100.00;99402.44;10336453;28;20030;-72
2024/02/11 19:21:41;;;;;;;0.80;0.80;;;;;;;8.87;100.00;99410.16;10350184;28;20101;-73
2024/02/11 19:26:42;;;;;;;4.68;4.35;;;;;;;8.80;100.00;99417.47;10350862;28;20065;-73
2024/02/11 19:31:44;;;;;;;3.67;1.77;;;;;;;8.77;100.00;99417.91;10333595;28;20038;-73
2024/02/11 19:36:44;;;;;;;0.65;0.65;;;;;;;8.74;100.00;99421.91;10335094;28;20077;-73
2024/02/11 19:41:46;;;;;;;1.45;1.45;;;;;;;8.64;100.00;99420.72;10334392;28;20125;-72
2024/02/11 19:46:47;;;;;;;1.33;1.30;;;;;;;8.52;100.00;99431.41;10334216;28;20053;-72
2024/02/11 19:51:47;;;;;;;0.70;0.70;;;;;;;8.48;100.00;99439.13;10335638;28;20042;-73
2024/02/11 19:56:47;;;;;;;0.70;0.70;;;;;;;8.46;100.00;99443.94;10336157;28;20482;-73
2024/02/11 20:01:49;;;;;;;0.95;0.93;;;;;;;8.48;100.00;99452.59;10336426;28;20038;-74
2024/02/11 20:06:49;;;;;;;1.25;1.25;;;;;;;8.44;100.00;99454.09;10334075;28;20447;-72
2024/02/11 20:11:49;;;;;;;2.28;2.17;;;;;;;8.35;100.00;99472.38;10333387;28;20049;-73
2024/02/11 20:16:50;;;;;;;1.35;1.35;;;;;;;8.18;100.00;99473.13;10332982;28;20129;-73
2024/02/11 20:21:50;;;;;;;3.85;1.85;;;;;;;8.10;100.00;99476.91;10331557;28;20483;-74
2024/02/11 20:26:51;;;;;;;0.65;0.65;;;;;;;8.07;100.00;99477.31;10334008;28;20129;-71
2024/02/11 20:31:52;;;;;;;0.63;0.63;;;;;;;7.99;100.00;99483.00;10332999;28;20034;-72
2024/02/11 20:36:53;;;;;;;0.60;0.60;;;;;;;7.93;100.00;99488.19;10332713;28;20030;-71
2024/02/11 20:41:57;;;;;;;1.63;1.52;;;;;;;7.97;100.00;99487.75;10332096;28;20045;-72
2024/02/11 20:46:59;;;;;;;0.82;0.82;;;;;;;7.94;100.00;99489.00;10347963;28;20435;-71
2024/02/11 20:51:59;;;;;;;2.47;2.35;;;;;;;7.91;100.00;99511.00;10331965;28;20066;-72
2024/02/11 20:56:59;;;;;;;1.27;1.27;;;;;;;7.98;100.00;99506.44;10331389;28;20062;-72
2024/02/11 21:02:00;;;;;;;1.60;1.50;;;;;;;7.90;100.00;99520.97;10335271;28;20069;-71
2024/02/11 21:07:00;;;;;;;0.70;0.70;;;;;;;7.88;100.00;99527.59;10340350;28;20039;-73
2024/02/11 21:12:03;;;;;;;1.25;1.25;;;;;;;7.94;100.00;99534.84;10354449;28;20061;-71
2024/02/11 21:17:06;;;;;;;6.90;4.63;;;;;;;8.01;100.00;99538.34;10339409;28;20117;-73
2024/02/11 21:22:09;;;;;;;0.40;0.40;;;;;;;8.10;100.00;99538.91;10342778;28;20050;-73
2024/02/11 21:27:11;;;;;;;0.60;0.60;;;;;;;8.10;100.00;99536.22;10337948;28;20033;-73
2024/02/11 21:32:12;;;;;;;0.85;0.85;;;;;;;8.07;100.00;99550.13;10337370;28;20392;-73
2024/02/11 21:37:14;;;;;;;1.60;1.52;;;;;;;8.08;100.00;99549.94;10351343;28;20045;-71
2024/02/11 21:42:15;;;;;;;0.90;0.88;;;;;;;8.15;100.00;99555.28;10333785;28;20359;-72
2024/02/11 21:47:16;;;;;;;1.20;1.20;;;;;;;8.20;100.00;99562.72;10333719;28;20414;-71
2024/02/11 21:52:17;;;;;;;1.00;1.00;;;;;;;8.16;100.00;99555.06;10336748;28;20042;-72
2024/02/11 21:57:17;;;;;;;0.50;0.50;;;;;;;8.10;100.00;99564.03;10342856;28;20037;-71
2024/02/11 22:02:18;;;;;;;0.55;0.55;;;;;;;8.11;100.00;99562.97;10340772;28;20054;-72
2024/02/11 22:07:18;;;;;;;0.95;0.95;;;;;;;8.09;100.00;99575.84;10339380;28;20049;-74
2024/02/11 22:12:19;;;;;;;0.65;0.65;;;;;;;8.07;100.00;99579.78;10337620;28;20371;-72
2024/02/11 22:17:21;;;;;;;0.90;0.90;;;;;;;8.00;100.00;99582.50;10337640;28;20038;-72
2024/02/11 22:22:22;;;;;;;0.50;0.50;;;;;;;7.93;100.00;99587.91;10340074;28;20051;-72
2024/02/11 22:27:23;;;;;;;0.60;0.60;;;;;;;7.77;100.00;99584.88;10342976;28;20463;-72
2024/02/11 22:32:23;;;;;;;0.90;0.90;;;;;;;7.78;100.00;99597.28;10338202;28;20030;-70
2024/02/11 22:37:23;;;;;;;4.50;3.20;;;;;;;7.73;100.00;99594.44;10338068;28;20121;-72
2024/02/11 22:42:24;;;;;;;2.53;2.42;;;;;;;7.50;100.00;99595.72;10335777;28;20173;-72
2024/02/11 22:47:24;;;;;;;0.57;0.57;;;;;;;7.30;100.00;99592.19;10336990;28;20041;-73
2024/02/11 22:52:27;;;;;;;0.50;0.50;;;;;;;7.18;100.00;99600.91;10338336;28;20054;-72
2024/02/11 22:57:28;;;;;;;0.57;0.57;;;;;;;7.00;100.00;99592.63;10336854;28;20038;-73
2024/02/11 23:02:29;;;;;;;0.38;0.38;;;;;;;6.85;100.00;99587.41;10335159;28;20109;-72
2024/02/11 23:07:29;;;;;;;0.60;0.60;;;;;;;6.77;100.00;99602.97;10351628;28;20030;-72